Time;durP1;ratioP1;P1;durP2;ratioP2;P2;SDS_P1;SDS_P2;PMS_P1;PMS_P2;Temp;Humidity;BMP_temperature;BMP_pressure;BME280_temperature;BME280_humidity;BME280_pressure;Samples;Min_cycle;Max_cycle;Signal;HPM_P1;HPM_P2
2023/12/15 00:00:31;;;;;;;34.05;18.73;;;;;;;;;;2091559;28;20029;-64
2023/12/15 00:01:32;;;;;;;33.80;17.90;;;;;;;;;;2091110;28;20048;-64
2023/12/15 00:02:32;;;;;;;33.33;19.42;;;;;;;;;;2091422;28;20058;-65
2023/12/15 00:03:33;;;;;;;37.72;20.27;;;;;;;;;;2090978;28;20120;-64
2023/12/15 00:04:34;;;;;;;34.67;18.98;;;;;;;;;;2090949;28;20028;-62
2023/12/15 00:05:34;;;;;;;35.65;18.58;;;;;;;;;;2091244;28;20034;-63
2023/12/15 00:06:35;;;;;;;29.67;16.48;;;;;;;;;;2091058;28;20064;-62
2023/12/15 00:07:36;;;;;;;33.30;19.27;;;;;;;;;;2090963;28;20485;-62
2023/12/15 00:08:37;;;;;;;26.45;14.55;;;;;;;;;;2090097;28;20040;-64
2023/12/15 00:09:37;;;;;;;33.90;18.40;;;;;;;;;;2090277;28;20037;-64
2023/12/15 00:10:38;;;;;;;29.13;15.68;;;;;;;;;;2091292;28;20044;-62
2023/12/15 00:11:39;;;;;;;32.20;17.55;;;;;;;;;;2091050;28;20033;-62
2023/12/15 00:12:39;;;;;;;31.70;18.05;;;;;;;;;;2090477;28;20059;-62
2023/12/15 00:13:41;;;;;;;29.65;17.50;;;;;;;;;;2091219;28;20041;-63
2023/12/15 00:14:42;;;;;;;30.02;16.27;;;;;;;;;;2090104;28;20371;-63
2023/12/15 00:15:42;;;;;;;29.45;17.35;;;;;;;;;;2091139;28;20040;-62
2023/12/15 00:16:43;;;;;;;28.05;16.42;;;;;;;;;;2091405;28;20049;-63
2023/12/15 00:17:44;;;;;;;30.45;18.35;;;;;;;;;;2090829;28;20060;-63
2023/12/15 00:18:45;;;;;;;29.90;17.55;;;;;;;;;;2091050;28;20389;-62
2023/12/15 00:19:45;;;;;;;31.63;19.00;;;;;;;;;;2091149;28;20453;-62
2023/12/15 00:20:46;;;;;;;30.55;18.05;;;;;;;;;;2090207;28;20029;-61
2023/12/15 00:21:47;;;;;;;30.88;17.38;;;;;;;;;;2090791;28;20060;-62
2023/12/15 00:22:48;;;;;;;24.35;14.18;;;;;;;;;;2090847;28;20036;-62
2023/12/15 00:23:48;;;;;;;26.15;14.23;;;;;;;;;;2091022;28;20033;-63
2023/12/15 00:24:49;;;;;;;21.80;12.70;;;;;;;;;;2091023;28;20025;-62
2023/12/15 00:25:50;;;;;;;21.45;12.80;;;;;;;;;;2090962;28;20053;-62
2023/12/15 00:26:50;;;;;;;23.23;14.27;;;;;;;;;;2090786;28;20416;-63
2023/12/15 00:27:51;;;;;;;21.23;13.02;;;;;;;;;;2090782;28;20081;-62
2023/12/15 00:28:52;;;;;;;25.25;14.45;;;;;;;;;;2090876;28;20378;-63
2023/12/15 00:29:53;;;;;;;20.10;11.60;;;;;;;;;;2090299;28;20051;-63
2023/12/15 00:30:53;;;;;;;23.13;12.05;;;;;;;;;;2090922;28;20111;-63
2023/12/15 00:31:54;;;;;;;18.58;10.65;;;;;;;;;;2090892;28;20067;-62
2023/12/15 00:32:55;;;;;;;21.20;12.35;;;;;;;;;;2090836;28;20048;-63
2023/12/15 00:33:56;;;;;;;23.13;12.95;;;;;;;;;;2090802;28;20049;-62
2023/12/15 00:34:56;;;;;;;21.92;12.13;;;;;;;;;;2091166;28;20045;-63
2023/12/15 00:35:58;;;;;;;21.83;13.32;;;;;;;;;;2090657;28;20049;-63
2023/12/15 00:36:59;;;;;;;21.63;11.75;;;;;;;;;;2090505;28;20052;-63
2023/12/15 00:38:00;;;;;;;20.58;11.77;;;;;;;;;;2090942;28;20102;-63
2023/12/15 00:39:01;;;;;;;23.60;13.27;;;;;;;;;;2090718;28;20447;-64
2023/12/15 00:40:02;;;;;;;19.75;11.15;;;;;;;;;;2090661;28;20388;-63
2023/12/15 00:41:02;;;;;;;19.85;10.88;;;;;;;;;;2090851;28;20037;-63
2023/12/15 00:42:04;;;;;;;20.13;11.73;;;;;;;;;;2090630;28;20036;-63
2023/12/15 00:43:05;;;;;;;19.67;10.85;;;;;;;;;;2090053;28;20056;-63
2023/12/15 00:44:06;;;;;;;19.63;10.77;;;;;;;;;;2090382;28;20017;-63
2023/12/15 00:45:07;;;;;;;19.85;11.23;;;;;;;;;;2090831;28;20024;-62
2023/12/15 00:46:07;;;;;;;19.85;10.70;;;;;;;;;;2090983;28;20049;-63
2023/12/15 00:47:08;;;;;;;19.33;10.43;;;;;;;;;;2090373;28;20085;-63
2023/12/15 00:48:09;;;;;;;16.95;10.15;;;;;;;;;;2090998;28;20032;-62
2023/12/15 00:49:09;;;;;;;15.85;8.82;;;;;;;;;;2090652;28;20095;-63
2023/12/15 00:50:11;;;;;;;16.33;9.65;;;;;;;;;;2090774;28;20532;-62
2023/12/15 00:51:12;;;;;;;18.10;11.05;;;;;;;;;;2090595;28;20045;-63
2023/12/15 00:52:13;;;;;;;17.90;9.88;;;;;;;;;;2090832;28;20041;-62
2023/12/15 00:53:14;;;;;;;16.30;10.10;;;;;;;;;;2090799;28;20044;-62
2023/12/15 00:54:14;;;;;;;19.42;9.48;;;;;;;;;;2090654;28;20408;-62
2023/12/15 00:55:15;;;;;;;15.07;8.30;;;;;;;;;;2090158;28;20120;-62
2023/12/15 00:56:16;;;;;;;16.80;9.43;;;;;;;;;;2090051;28;20025;-62
2023/12/15 00:57:16;;;;;;;17.25;9.93;;;;;;;;;;2090819;28;20032;-62
2023/12/15 00:58:17;;;;;;;14.85;8.18;;;;;;;;;;2090419;28;20041;-62
2023/12/15 00:59:18;;;;;;;18.13;10.50;;;;;;;;;;2090594;28;20052;-62
2023/12/15 01:00:19;;;;;;;17.30;9.60;;;;;;;;;;2090259;28;20033;-62
2023/12/15 01:01:19;;;;;;;18.25;9.77;;;;;;;;;;2090894;28;20460;-63
2023/12/15 01:02:20;;;;;;;18.17;9.88;;;;;;;;;;2090402;28;20520;-62
2023/12/15 01:03:21;;;;;;;16.58;9.82;;;;;;;;;;2090618;28;20029;-62
2023/12/15 01:04:21;;;;;;;14.93;8.20;;;;;;;;;;2090497;28;20044;-61
2023/12/15 01:05:22;;;;;;;15.48;8.93;;;;;;;;;;2090554;28;20036;-62
2023/12/15 01:06:23;;;;;;;18.40;9.88;;;;;;;;;;2090524;28;20075;-62
2023/12/15 01:07:24;;;;;;;17.42;9.60;;;;;;;;;;2090851;28;20056;-61
2023/12/15 01:08:25;;;;;;;11.73;6.47;;;;;;;;;;2089610;28;20040;-61
2023/12/15 01:09:26;;;;;;;13.80;7.93;;;;;;;;;;2089883;28;20120;-61
2023/12/15 01:10:27;;;;;;;14.32;8.77;;;;;;;;;;2090233;28;20033;-63
2023/12/15 01:11:28;;;;;;;16.52;9.57;;;;;;;;;;2090724;28;20484;-62
2023/12/15 01:12:28;;;;;;;15.75;9.18;;;;;;;;;;2090722;28;20033;-62
2023/12/15 01:13:29;;;;;;;18.73;9.13;;;;;;;;;;2089513;28;20036;-61
2023/12/15 01:14:30;;;;;;;13.65;7.80;;;;;;;;;;2090278;28;20033;-62
2023/12/15 01:15:30;;;;;;;15.95;9.20;;;;;;;;;;2090357;28;20041;-62
2023/12/15 01:16:31;;;;;;;17.00;9.38;;;;;;;;;;2090411;28;20033;-61
2023/12/15 01:17:32;;;;;;;15.73;9.60;;;;;;;;;;2090460;28;20389;-62
2023/12/15 01:18:33;;;;;;;15.13;8.60;;;;;;;;;;2090356;28;20033;-62
2023/12/15 01:19:33;;;;;;;15.20;8.75;;;;;;;;;;2090367;28;20053;-61
2023/12/15 01:20:34;;;;;;;18.60;9.30;;;;;;;;;;2090202;28;20045;-62
2023/12/15 01:21:35;;;;;;;16.30;8.73;;;;;;;;;;2090324;28;20040;-63
2023/12/15 01:22:35;;;;;;;15.80;8.98;;;;;;;;;;2090419;28;20389;-63
2023/12/15 01:23:37;;;;;;;14.70;8.20;;;;;;;;;;2090296;28;20036;-62
2023/12/15 01:24:38;;;;;;;14.80;8.27;;;;;;;;;;2090212;28;20048;-63
2023/12/15 01:25:39;;;;;;;13.80;7.35;;;;;;;;;;2089662;28;20036;-62
2023/12/15 01:26:39;;;;;;;16.27;8.57;;;;;;;;;;2089690;28;20186;-63
2023/12/15 01:27:40;;;;;;;16.27;8.50;;;;;;;;;;2090338;28;20037;-62
2023/12/15 01:28:41;;;;;;;12.65;8.05;;;;;;;;;;2090320;28;20121;-61
2023/12/15 01:29:42;;;;;;;15.32;9.10;;;;;;;;;;2090291;28;20052;-62
2023/12/15 01:30:43;;;;;;;14.98;8.60;;;;;;;;;;2090930;28;20048;-62
2023/12/15 01:31:43;;;;;;;14.10;8.43;;;;;;;;;;2089765;28;20496;-62
2023/12/15 01:32:44;;;;;;;12.85;8.00;;;;;;;;;;2090538;28;20032;-62
2023/12/15 01:33:45;;;;;;;14.65;8.02;;;;;;;;;;2090310;28;20049;-62
2023/12/15 01:34:46;;;;;;;13.63;8.50;;;;;;;;;;2090216;28;20055;-62
2023/12/15 01:35:46;;;;;;;14.32;8.10;;;;;;;;;;2090666;28;20063;-62
2023/12/15 01:36:47;;;;;;;12.73;7.78;;;;;;;;;;2091145;28;20041;-62
2023/12/15 01:37:48;;;;;;;12.57;7.90;;;;;;;;;;2090256;28;20056;-63
2023/12/15 01:38:48;;;;;;;11.77;7.03;;;;;;;;;;2090211;28;20020;-61
2023/12/15 01:39:50;;;;;;;12.00;7.50;;;;;;;;;;2090344;28;20041;-64
2023/12/15 01:40:50;;;;;;;14.23;7.80;;;;;;;;;;2090297;28;20071;-64
2023/12/15 01:41:51;;;;;;;13.68;7.70;;;;;;;;;;2091016;28;20465;-62
2023/12/15 01:42:52;;;;;;;10.73;6.28;;;;;;;;;;2090492;28;20044;-62
2023/12/15 01:43:52;;;;;;;11.20;7.35;;;;;;;;;;2090674;28;20017;-62
2023/12/15 01:44:53;;;;;;;10.50;6.97;;;;;;;;;;2091020;28;20043;-62
2023/12/15 01:45:54;;;;;;;13.35;8.15;;;;;;;;;;2090732;28;20024;-64
2023/12/15 01:46:54;;;;;;;11.73;7.05;;;;;;;;;;2090221;28;20040;-62
2023/12/15 01:47:55;;;;;;;11.98;7.32;;;;;;;;;;2090816;28;20049;-62
2023/12/15 01:48:56;;;;;;;13.25;7.70;;;;;;;;;;2089344;28;20037;-63
2023/12/15 01:49:57;;;;;;;11.85;6.82;;;;;;;;;;2089915;28;20469;-61
2023/12/15 01:50:58;;;;;;;11.18;6.55;;;;;;;;;;2089300;28;20040;-62
2023/12/15 01:51:58;;;;;;;10.45;6.35;;;;;;;;;;2090340;28;20059;-62
2023/12/15 01:52:59;;;;;;;10.85;6.93;;;;;;;;;;2090366;28;20043;-62
2023/12/15 01:54:00;;;;;;;9.55;6.18;;;;;;;;;;2090209;28;20040;-62
2023/12/15 01:55:00;;;;;;;15.80;6.60;;;;;;;;;;2090158;28;20477;-62
2023/12/15 01:56:02;;;;;;;9.60;5.68;;;;;;;;;;2090264;28;20033;-62
2023/12/15 01:57:03;;;;;;;9.52;6.13;;;;;;;;;;2089624;28;20438;-62
2023/12/15 01:58:04;;;;;;;10.57;5.68;;;;;;;;;;2089341;28;20067;-61
2023/12/15 01:59:05;;;;;;;10.85;6.85;;;;;;;;;;2090603;28;20052;-62
2023/12/15 02:00:09;;;;;;;9.88;5.07;;;;;;;;;;2090333;28;20032;-62
2023/12/15 02:01:12;;;;;;;11.80;6.88;;;;;;;;;;2090287;28;20059;-61
2023/12/15 02:02:13;;;;;;;10.65;6.70;;;;;;;;;;2090613;28;20448;-62
2023/12/15 02:03:14;;;;;;;13.57;6.93;;;;;;;;;;2090297;28;20029;-63
2023/12/15 02:04:14;;;;;;;11.38;7.22;;;;;;;;;;2090139;28;20132;-62
2023/12/15 02:05:15;;;;;;;9.90;5.85;;;;;;;;;;2090646;28;20048;-62
2023/12/15 02:06:16;;;;;;;9.45;5.95;;;;;;;;;;2090243;28;20355;-62
2023/12/15 02:07:17;;;;;;;10.10;6.75;;;;;;;;;;2090902;28;20461;-63
2023/12/15 02:08:18;;;;;;;10.50;6.63;;;;;;;;;;2090250;28;20037;-62
2023/12/15 02:09:18;;;;;;;11.73;7.63;;;;;;;;;;2090228;28;20033;-62
2023/12/15 02:10:19;;;;;;;11.60;7.45;;;;;;;;;;2090325;28;20037;-64
2023/12/15 02:11:20;;;;;;;11.82;6.60;;;;;;;;;;2090874;28;20136;-64
2023/12/15 02:12:21;;;;;;;10.68;6.55;;;;;;;;;;2090674;28;20045;-64
2023/12/15 02:13:21;;;;;;;10.63;6.38;;;;;;;;;;2090129;28;20065;-64
2023/12/15 02:14:22;;;;;;;11.20;7.07;;;;;;;;;;2089464;28;20401;-64
2023/12/15 02:15:23;;;;;;;10.13;5.95;;;;;;;;;;2090025;28;20473;-64
2023/12/15 02:16:23;;;;;;;13.63;7.53;;;;;;;;;;2090066;28;20044;-64
2023/12/15 02:17:24;;;;;;;10.07;6.28;;;;;;;;;;2090156;28;20052;-62
2023/12/15 02:18:25;;;;;;;12.52;7.22;;;;;;;;;;2090500;28;20045;-62
2023/12/15 02:19:26;;;;;;;12.23;6.82;;;;;;;;;;2090211;28;20390;-64
2023/12/15 02:20:26;;;;;;;9.95;6.53;;;;;;;;;;2090381;28;20030;-64
2023/12/15 02:21:27;;;;;;;11.20;6.63;;;;;;;;;;2090347;28;20028;-64
2023/12/15 02:22:28;;;;;;;10.73;6.80;;;;;;;;;;2089491;28;20041;-64
2023/12/15 02:23:28;;;;;;;9.85;5.20;;;;;;;;;;2089703;28;20048;-64
2023/12/15 02:24:29;;;;;;;9.48;5.22;;;;;;;;;;2090425;28;20037;-64
2023/12/15 02:25:30;;;;;;;11.52;7.20;;;;;;;;;;2090058;28;20056;-63
2023/12/15 02:26:31;;;;;;;10.75;6.18;;;;;;;;;;2090818;28;20469;-64
2023/12/15 02:27:32;;;;;;;11.57;6.53;;;;;;;;;;2090149;28;20039;-61
2023/12/15 02:28:33;;;;;;;8.57;5.50;;;;;;;;;;2090649;28;20393;-64
2023/12/15 02:29:34;;;;;;;10.18;6.38;;;;;;;;;;2090112;28;20081;-64
2023/12/15 02:30:35;;;;;;;12.75;7.28;;;;;;;;;;2090267;28;20072;-63
2023/12/15 02:31:35;;;;;;;11.02;6.45;;;;;;;;;;2090430;28;20485;-64
2023/12/15 02:32:36;;;;;;;9.50;6.10;;;;;;;;;;2090027;28;20033;-64
2023/12/15 02:33:37;;;;;;;11.38;7.22;;;;;;;;;;2090777;28;20048;-64
2023/12/15 02:34:38;;;;;;;10.27;6.63;;;;;;;;;;2089976;28;20044;-63
2023/12/15 02:35:39;;;;;;;11.50;7.25;;;;;;;;;;2090143;28;20045;-63
2023/12/15 02:36:40;;;;;;;11.65;6.95;;;;;;;;;;2090100;28;20421;-63
2023/12/15 02:37:40;;;;;;;12.02;7.45;;;;;;;;;;2090045;28;20024;-64
2023/12/15 02:38:41;;;;;;;10.38;6.65;;;;;;;;;;2090053;28;20033;-62
2023/12/15 02:39:42;;;;;;;14.18;7.57;;;;;;;;;;2090769;28;20033;-61
2023/12/15 02:40:44;;;;;;;11.75;6.82;;;;;;;;;;2090248;28;20033;-64
2023/12/15 02:41:45;;;;;;;10.00;6.18;;;;;;;;;;2090109;28;20483;-64
2023/12/15 02:42:45;;;;;;;11.85;7.32;;;;;;;;;;2090039;28;20040;-63
2023/12/15 02:43:46;;;;;;;12.18;7.78;;;;;;;;;;2090009;28;20033;-64
2023/12/15 02:44:47;;;;;;;12.85;8.30;;;;;;;;;;2091914;28;20029;-63
2023/12/15 02:45:48;;;;;;;12.95;7.85;;;;;;;;;;2091614;28;20052;-63
2023/12/15 02:46:48;;;;;;;13.88;8.52;;;;;;;;;;2091582;28;20421;-63
2023/12/15 02:47:49;;;;;;;12.43;7.95;;;;;;;;;;2091726;28;20465;-62
2023/12/15 02:48:50;;;;;;;11.65;7.13;;;;;;;;;;2091581;28;20044;-61
2023/12/15 02:49:52;;;;;;;15.02;9.10;;;;;;;;;;2091282;28;20041;-61
2023/12/15 02:50:52;;;;;;;12.38;7.85;;;;;;;;;;2091700;28;20048;-61
2023/12/15 02:51:53;;;;;;;13.30;8.43;;;;;;;;;;2091726;28;20512;-63
2023/12/15 02:52:54;;;;;;;12.25;8.10;;;;;;;;;;2091568;28;20021;-63
2023/12/15 02:53:57;;;;;;;16.98;8.18;;;;;;;;;;2091574;28;20056;-60
2023/12/15 02:54:57;;;;;;;12.85;7.82;;;;;;;;;;2091554;28;20052;-63
2023/12/15 02:55:58;;;;;;;14.60;8.10;;;;;;;;;;2091520;28;20401;-63
2023/12/15 02:56:59;;;;;;;13.55;7.85;;;;;;;;;;2091515;28;20041;-61
2023/12/15 02:58:00;;;;;;;12.73;7.50;;;;;;;;;;2091386;28;20041;-61
2023/12/15 02:59:00;;;;;;;12.70;7.55;;;;;;;;;;2091600;28;20048;-63
2023/12/15 03:00:01;;;;;;;15.63;9.13;;;;;;;;;;2091438;28;20052;-61
2023/12/15 03:01:02;;;;;;;12.68;7.60;;;;;;;;;;2091520;28;20049;-61
2023/12/15 03:02:03;;;;;;;12.35;8.32;;;;;;;;;;2091232;28;20040;-61
2023/12/15 03:03:04;;;;;;;12.88;8.07;;;;;;;;;;2091518;28;20456;-61
2023/12/15 03:04:05;;;;;;;13.40;8.77;;;;;;;;;;2091691;28;20037;-61
2023/12/15 03:05:06;;;;;;;15.27;8.38;;;;;;;;;;2091437;28;20420;-61
2023/12/15 03:06:06;;;;;;;13.20;8.40;;;;;;;;;;2091223;28;20040;-62
2023/12/15 03:07:07;;;;;;;13.35;7.85;;;;;;;;;;2091068;28;20068;-61
2023/12/15 03:08:08;;;;;;;11.68;7.10;;;;;;;;;;2091228;28;20025;-60
2023/12/15 03:09:08;;;;;;;22.45;8.90;;;;;;;;;;2091353;28;20481;-61
2023/12/15 03:10:09;;;;;;;16.30;9.18;;;;;;;;;;2091431;28;20401;-61
2023/12/15 03:11:10;;;;;;;16.00;9.32;;;;;;;;;;2091384;28;20476;-60
2023/12/15 03:12:11;;;;;;;17.20;9.48;;;;;;;;;;2091669;28;20013;-61
2023/12/15 03:13:11;;;;;;;13.50;8.00;;;;;;;;;;2091546;28;20029;-63
2023/12/15 03:14:12;;;;;;;15.13;9.13;;;;;;;;;;2091078;28;20048;-63
2023/12/15 03:15:13;;;;;;;13.95;8.82;;;;;;;;;;2091462;28;20033;-63
2023/12/15 03:16:13;;;;;;;15.13;9.50;;;;;;;;;;2091462;28;20393;-61
2023/12/15 03:17:16;;;;;;;12.93;7.78;;;;;;;;;;2091077;28;20052;-61
2023/12/15 03:18:16;;;;;;;15.68;9.10;;;;;;;;;;2091868;28;20045;-61
2023/12/15 03:19:17;;;;;;;14.75;7.53;;;;;;;;;;2091097;28;20045;-64
2023/12/15 03:20:18;;;;;;;15.25;9.20;;;;;;;;;;2091488;28;20037;-61
2023/12/15 03:21:19;;;;;;;14.18;9.05;;;;;;;;;;2091706;28;20040;-63
2023/12/15 03:22:19;;;;;;;13.35;8.60;;;;;;;;;;2091349;28;20049;-62
2023/12/15 03:23:20;;;;;;;13.23;8.27;;;;;;;;;;2092006;28;20405;-61
2023/12/15 03:24:21;;;;;;;13.75;7.78;;;;;;;;;;2091301;28;20037;-61
2023/12/15 03:25:21;;;;;;;14.93;8.88;;;;;;;;;;2091320;28;20064;-61
2023/12/15 03:26:22;;;;;;;14.32;8.13;;;;;;;;;;2091565;28;20025;-61
2023/12/15 03:27:23;;;;;;;12.30;7.32;;;;;;;;;;2091544;28;20040;-61
2023/12/15 03:28:23;;;;;;;12.15;7.97;;;;;;;;;;2091294;28;20079;-61
2023/12/15 03:29:24;;;;;;;13.75;9.07;;;;;;;;;;2091344;28;20036;-61
2023/12/15 03:30:25;;;;;;;13.18;8.48;;;;;;;;;;2091544;28;20334;-61
2023/12/15 03:31:26;;;;;;;14.38;8.52;;;;;;;;;;2091775;28;20051;-61
2023/12/15 03:32:26;;;;;;;14.43;8.05;;;;;;;;;;2091607;28;20037;-60
2023/12/15 03:33:30;;;;;;;13.23;8.00;;;;;;;;;;2091271;28;20033;-63
2023/12/15 03:34:31;;;;;;;10.75;4.95;;;;;;;;;;2090581;28;20041;-62
2023/12/15 03:35:31;;;;;;;11.15;6.93;;;;;;;;;;2090459;28;20053;-61
2023/12/15 03:36:35;;;;;;;8.38;4.97;;;;;;;;;;2091306;28;20457;-63
2023/12/15 03:37:36;;;;;;;10.75;6.18;;;;;;;;;;2091367;28;20436;-62
2023/12/15 03:38:37;;;;;;;10.18;5.97;;;;;;;;;;2091355;28;20025;-63
2023/12/15 03:39:37;;;;;;;11.02;6.88;;;;;;;;;;2091175;28;20041;-63
2023/12/15 03:40:38;;;;;;;10.52;6.47;;;;;;;;;;2091364;28;20032;-60
2023/12/15 03:41:39;;;;;;;12.20;7.13;;;;;;;;;;2091459;28;20033;-61
2023/12/15 03:42:40;;;;;;;10.90;6.53;;;;;;;;;;2091162;28;20033;-60
2023/12/15 03:43:40;;;;;;;12.27;7.20;;;;;;;;;;2090812;28;20044;-63
2023/12/15 03:44:41;;;;;;;13.57;8.00;;;;;;;;;;2090989;28;20045;-60
2023/12/15 03:45:42;;;;;;;10.40;5.63;;;;;;;;;;2091133;28;20056;-60
2023/12/15 03:46:43;;;;;;;13.20;7.75;;;;;;;;;;2091355;28;20036;-62
2023/12/15 03:47:44;;;;;;;12.27;7.78;;;;;;;;;;2091943;28;20041;-62
2023/12/15 03:48:44;;;;;;;9.75;6.07;;;;;;;;;;2091123;28;20044;-61
2023/12/15 03:49:45;;;;;;;12.40;6.85;;;;;;;;;;2091216;28;20076;-61
2023/12/15 03:50:46;;;;;;;10.32;5.97;;;;;;;;;;2091419;28;20049;-61
2023/12/15 03:51:47;;;;;;;8.52;5.53;;;;;;;;;;2091016;28;20124;-61
2023/12/15 03:52:47;;;;;;;9.65;5.70;;;;;;;;;;2091463;28;20068;-61
2023/12/15 03:53:48;;;;;;;10.65;5.82;;;;;;;;;;2091076;28;20032;-61
2023/12/15 03:54:49;;;;;;;11.70;6.60;;;;;;;;;;2090947;28;20486;-61
2023/12/15 03:55:50;;;;;;;9.02;5.47;;;;;;;;;;2091106;28;20042;-61
2023/12/15 03:56:57;;;;;;;9.38;5.50;;;;;;;;;;2091173;28;20028;-61
2023/12/15 03:57:57;;;;;;;10.25;6.03;;;;;;;;;;2091275;28;20053;-61
2023/12/15 03:58:59;;;;;;;10.23;6.20;;;;;;;;;;2090753;28;20049;-61
2023/12/15 03:59:59;;;;;;;11.43;6.15;;;;;;;;;;2090871;28;20041;-62
2023/12/15 04:01:00;;;;;;;11.52;4.90;;;;;;;;;;2091088;28;20128;-62
2023/12/15 04:02:01;;;;;;;10.50;6.05;;;;;;;;;;2090966;28;20045;-62
2023/12/15 04:03:02;;;;;;;10.93;6.72;;;;;;;;;;2091034;28;20434;-62
2023/12/15 04:04:02;;;;;;;11.82;6.38;;;;;;;;;;2090998;28;20473;-61
2023/12/15 04:05:03;;;;;;;12.43;6.85;;;;;;;;;;2091896;28;20037;-62
2023/12/15 04:06:08;;;;;;;11.80;6.82;;;;;;;;;;2091026;28;20125;-62
2023/12/15 04:07:08;;;;;;;14.15;7.07;;;;;;;;;;2090941;28;20060;-61
2023/12/15 04:08:09;;;;;;;14.90;7.70;;;;;;;;;;2090959;28;20025;-60
2023/12/15 04:09:10;;;;;;;10.93;6.53;;;;;;;;;;2090875;28;20045;-62
2023/12/15 04:10:11;;;;;;;15.05;7.28;;;;;;;;;;2090909;28;20036;-61
2023/12/15 04:11:11;;;;;;;13.98;7.65;;;;;;;;;;2091073;28;20048;-61
2023/12/15 04:12:12;;;;;;;17.27;7.68;;;;;;;;;;2090958;28;20119;-62
2023/12/15 04:13:13;;;;;;;13.10;6.88;;;;;;;;;;2091018;28;20041;-62
2023/12/15 04:14:14;;;;;;;14.48;8.63;;;;;;;;;;2090815;28;20485;-61
2023/12/15 04:15:18;;;;;;;13.82;7.97;;;;;;;;;;2090585;28;20108;-62
2023/12/15 04:16:18;;;;;;;16.08;9.00;;;;;;;;;;2090303;28;20052;-62
2023/12/15 04:17:19;;;;;;;12.10;5.85;;;;;;;;;;2091316;28;20033;-61
2023/12/15 04:18:20;;;;;;;15.32;7.50;;;;;;;;;;2091036;28;20032;-61
2023/12/15 04:19:21;;;;;;;13.90;7.50;;;;;;;;;;2090815;28;20392;-61
2023/12/15 04:20:21;;;;;;;13.45;7.82;;;;;;;;;;2091190;28;20484;-61
2023/12/15 04:21:22;;;;;;;10.93;6.07;;;;;;;;;;2090900;28;20037;-61
2023/12/15 04:22:23;;;;;;;10.63;5.43;;;;;;;;;;2090797;28;20081;-62
2023/12/15 04:23:23;;;;;;;16.02;8.65;;;;;;;;;;2090842;28;20040;-61
2023/12/15 04:24:25;;;;;;;15.35;8.85;;;;;;;;;;2090896;28;20041;-62
2023/12/15 04:25:26;;;;;;;13.90;7.70;;;;;;;;;;2091014;28;20481;-61
2023/12/15 04:26:27;;;;;;;13.88;7.28;;;;;;;;;;2090805;28;20067;-62
2023/12/15 04:27:28;;;;;;;15.40;8.20;;;;;;;;;;2090825;28;20067;-62
2023/12/15 04:28:28;;;;;;;14.75;7.88;;;;;;;;;;2090784;28;20033;-61
2023/12/15 04:29:29;;;;;;;11.95;6.68;;;;;;;;;;2090782;28;20037;-61
2023/12/15 04:30:30;;;;;;;18.85;9.50;;;;;;;;;;2091265;28;20056;-60
2023/12/15 04:31:31;;;;;;;18.13;8.80;;;;;;;;;;2090857;28;20037;-63
2023/12/15 04:32:31;;;;;;;17.77;10.15;;;;;;;;;;2090889;28;20477;-60
2023/12/15 04:33:32;;;;;;;15.82;8.50;;;;;;;;;;2090753;28;20059;-61
2023/12/15 04:34:33;;;;;;;19.13;10.15;;;;;;;;;;2090645;28;20053;-61
2023/12/15 04:35:34;;;;;;;21.00;11.48;;;;;;;;;;2091027;28;20417;-61
2023/12/15 04:36:35;;;;;;;18.25;9.68;;;;;;;;;;2090706;28;20405;-61
2023/12/15 04:37:35;;;;;;;21.55;12.07;;;;;;;;;;2090922;28;20071;-61
2023/12/15 04:38:36;;;;;;;20.98;10.70;;;;;;;;;;2090893;28;20107;-61
2023/12/15 04:39:37;;;;;;;23.75;13.32;;;;;;;;;;2090590;28;20481;-64
2023/12/15 04:40:38;;;;;;;23.83;11.15;;;;;;;;;;2090850;28;20032;-63
2023/12/15 04:41:38;;;;;;;23.67;11.27;;;;;;;;;;2090815;28;20040;-61
2023/12/15 04:42:39;;;;;;;23.45;12.32;;;;;;;;;;2090919;28;20032;-61
2023/12/15 04:43:40;;;;;;;24.10;13.43;;;;;;;;;;2090736;28;20064;-61
2023/12/15 04:44:41;;;;;;;27.08;13.25;;;;;;;;;;2091079;28;20025;-62
2023/12/15 04:45:41;;;;;;;24.77;12.77;;;;;;;;;;2090672;28;20063;-62
2023/12/15 04:46:42;;;;;;;21.48;11.40;;;;;;;;;;2091051;28;20029;-61
2023/12/15 04:47:43;;;;;;;22.65;11.85;;;;;;;;;;2090623;28;20163;-63
2023/12/15 04:48:44;;;;;;;21.25;12.35;;;;;;;;;;2090855;28;20025;-62
2023/12/15 04:49:44;;;;;;;15.55;7.80;;;;;;;;;;2089684;28;20052;-60
2023/12/15 04:50:45;;;;;;;25.05;12.68;;;;;;;;;;2089205;28;20065;-61
2023/12/15 04:51:46;;;;;;;19.90;9.40;;;;;;;;;;2090565;28;20045;-63
2023/12/15 04:52:47;;;;;;;21.95;11.38;;;;;;;;;;2090590;28;20059;-62
2023/12/15 04:53:47;;;;;;;22.02;12.30;;;;;;;;;;2090753;28;20053;-60
2023/12/15 04:54:48;;;;;;;25.75;13.60;;;;;;;;;;2090568;28;20028;-61
2023/12/15 04:55:49;;;;;;;22.25;11.80;;;;;;;;;;2090862;28;20048;-61
2023/12/15 04:56:49;;;;;;;26.17;12.60;;;;;;;;;;2090777;28;20017;-61
2023/12/15 04:57:50;;;;;;;27.25;13.90;;;;;;;;;;2090683;28;20062;-63
2023/12/15 04:58:51;;;;;;;24.20;12.43;;;;;;;;;;2090711;28;20032;-62
2023/12/15 04:59:52;;;;;;;22.38;10.93;;;;;;;;;;2090121;28;20091;-63
2023/12/15 05:00:52;;;;;;;27.13;13.90;;;;;;;;;;2090750;28;20421;-63
2023/12/15 05:01:53;;;;;;;28.25;13.52;;;;;;;;;;2090225;28;20497;-63
2023/12/15 05:02:54;;;;;;;26.17;13.35;;;;;;;;;;2090818;28;20036;-63
2023/12/15 05:03:55;;;;;;;23.63;11.82;;;;;;;;;;2090839;28;20059;-61
2023/12/15 05:04:55;;;;;;;28.52;14.27;;;;;;;;;;2090816;28;20048;-63
2023/12/15 05:05:56;;;;;;;23.23;10.77;;;;;;;;;;2090869;28;20052;-63
2023/12/15 05:06:57;;;;;;;27.65;14.60;;;;;;;;;;2090220;28;20080;-62
2023/12/15 05:07:58;;;;;;;27.35;13.48;;;;;;;;;;2090453;28;20060;-62
2023/12/15 05:08:58;;;;;;;25.23;12.50;;;;;;;;;;2090594;28;20485;-63
2023/12/15 05:09:59;;;;;;;28.08;14.63;;;;;;;;;;2090661;28;20477;-63
2023/12/15 05:11:00;;;;;;;27.98;13.48;;;;;;;;;;2090489;28;20032;-61
2023/12/15 05:12:01;;;;;;;29.02;12.80;;;;;;;;;;2090446;28;20053;-61
2023/12/15 05:13:02;;;;;;;27.92;12.98;;;;;;;;;;2090389;28;20025;-61
2023/12/15 05:14:03;;;;;;;30.77;15.07;;;;;;;;;;2089268;28;20598;-60
2023/12/15 05:15:03;;;;;;;27.95;13.80;;;;;;;;;;2090400;28;20059;-63
2023/12/15 05:16:05;;;;;;;28.08;14.45;;;;;;;;;;2091153;28;20481;-61
2023/12/15 05:17:05;;;;;;;27.67;14.02;;;;;;;;;;2090691;28;20041;-61
2023/12/15 05:18:06;;;;;;;32.85;16.50;;;;;;;;;;2090596;28;20390;-61
2023/12/15 05:19:07;;;;;;;24.02;11.98;;;;;;;;;;2090491;28;20052;-61
2023/12/15 05:20:08;;;;;;;27.67;13.52;;;;;;;;;;2090437;28;20017;-63
2023/12/15 05:21:08;;;;;;;27.58;14.10;;;;;;;;;;2090588;28;20094;-61
2023/12/15 05:22:09;;;;;;;28.83;14.45;;;;;;;;;;2090388;28;20036;-61
2023/12/15 05:23:11;;;;;;;31.13;15.70;;;;;;;;;;2090367;28;20045;-62
2023/12/15 05:24:11;;;;;;;27.95;13.68;;;;;;;;;;2090375;28;20024;-61
2023/12/15 05:25:12;;;;;;;24.38;11.98;;;;;;;;;;2090423;28;20041;-61
2023/12/15 05:26:13;;;;;;;24.92;12.05;;;;;;;;;;2090386;28;20037;-60
2023/12/15 05:27:14;;;;;;;29.63;13.93;;;;;;;;;;2090340;28;20024;-60
2023/12/15 05:28:15;;;;;;;26.77;13.23;;;;;;;;;;2090729;28;20036;-60
2023/12/15 05:29:15;;;;;;;25.23;11.63;;;;;;;;;;2090324;28;20036;-60
2023/12/15 05:30:16;;;;;;;31.10;15.43;;;;;;;;;;2090195;28;20501;-60
2023/12/15 05:31:17;;;;;;;30.23;13.95;;;;;;;;;;2090087;28;20549;-60
2023/12/15 05:32:18;;;;;;;29.77;14.88;;;;;;;;;;2090319;28;20082;-62
2023/12/15 05:33:18;;;;;;;24.02;11.23;;;;;;;;;;2090320;28;20033;-60
2023/12/15 05:34:19;;;;;;;28.73;14.65;;;;;;;;;;2090345;28;20033;-60
2023/12/15 05:35:20;;;;;;;28.50;13.82;;;;;;;;;;2090349;28;20043;-60
2023/12/15 05:36:21;;;;;;;27.83;15.43;;;;;;;;;;2090078;28;20045;-62
2023/12/15 05:37:21;;;;;;;25.50;13.13;;;;;;;;;;2090391;28;20064;-61
2023/12/15 05:38:22;;;;;;;28.13;14.10;;;;;;;;;;2090316;28;20036;-61
2023/12/15 05:39:23;;;;;;;27.27;14.07;;;;;;;;;;2089974;28;20397;-61
2023/12/15 05:40:23;;;;;;;27.92;14.35;;;;;;;;;;2090774;28;20492;-61
2023/12/15 05:41:24;;;;;;;25.88;13.60;;;;;;;;;;2089746;28;20128;-60
2023/12/15 05:42:25;;;;;;;29.40;14.98;;;;;;;;;;2089862;28;20040;-60
2023/12/15 05:43:26;;;;;;;27.73;14.30;;;;;;;;;;2090312;28;20033;-60
2023/12/15 05:44:26;;;;;;;25.90;13.02;;;;;;;;;;2090425;28;20048;-62
2023/12/15 05:45:27;;;;;;;25.58;13.50;;;;;;;;;;2090569;28;20060;-62
2023/12/15 05:46:28;;;;;;;27.35;14.35;;;;;;;;;;2090257;28;20052;-60
2023/12/15 05:47:28;;;;;;;21.75;11.30;;;;;;;;;;2090351;28;20045;-60
2023/12/15 05:48:29;;;;;;;28.33;14.55;;;;;;;;;;2090358;28;20393;-60
2023/12/15 05:49:30;;;;;;;28.52;14.30;;;;;;;;;;2090513;28;20052;-61
2023/12/15 05:50:31;;;;;;;27.73;13.48;;;;;;;;;;2090213;28;20045;-62
2023/12/15 05:51:31;;;;;;;24.80;12.77;;;;;;;;;;2090207;28;20060;-61
2023/12/15 05:52:32;;;;;;;27.38;14.13;;;;;;;;;;2090182;28;20025;-62
2023/12/15 05:53:33;;;;;;;24.45;12.07;;;;;;;;;;2090246;28;20045;-61
2023/12/15 05:54:34;;;;;;;24.17;12.90;;;;;;;;;;2090585;28;20040;-61
2023/12/15 05:55:35;;;;;;;25.98;13.10;;;;;;;;;;2090162;28;20037;-62
2023/12/15 05:56:35;;;;;;;29.70;14.35;;;;;;;;;;2090114;28;20040;-61
2023/12/15 05:57:36;;;;;;;26.65;14.02;;;;;;;;;;2090194;28;20524;-62